Terminal Aerodrome Forecast
Issued by NWS

Home | Current Version | Previous Version | Text Only | Print | Product List | Glossary On
Versions: 1 2 3 4 5 6 7 8 9 10 11 12
000
FTUS45 KABQ 071729
TAFFMN
TAF
KFMN 071729Z 0718/0818 30012KT P6SM SCT070
     FM080000 32006KT P6SM SCT250
     FM080700 08006KT P6SM BKN200=

USA.gov is the U.S. government's official web portal to all federal, state and local government web resources and services.